createdAt,value
2023-04-18T00:02:23.174Z,63.60
2023-04-18T00:04:55.064Z,63.60
2023-04-18T00:07:27.655Z,63.70
2023-04-18T00:09:58.058Z,63.70
2023-04-18T00:12:28.945Z,63.60
2023-04-18T00:15:01.673Z,63.50
2023-04-18T00:17:33.069Z,63.50
2023-04-18T00:20:08.730Z,63.50
2023-04-18T00:22:42.864Z,63.40
2023-04-18T00:25:11.466Z,63.40
2023-04-18T00:27:39.306Z,63.50
2023-04-18T00:30:13.631Z,63.40
2023-04-18T00:32:43.326Z,63.40
2023-04-18T00:35:12.765Z,63.30
2023-04-18T00:37:41.962Z,63.30
2023-04-18T00:40:16.075Z,63.30
2023-04-18T00:42:45.833Z,63.20
2023-04-18T00:45:14.146Z,63.20
2023-04-18T00:47:43.865Z,63.10
2023-04-18T00:50:12.600Z,63.10
2023-04-18T00:52:44.260Z,63.10
2023-04-18T00:55:14.060Z,63.10
2023-04-18T00:57:44.854Z,63.30
2023-04-18T01:00:15.485Z,63.10
2023-04-18T01:02:44.328Z,63.20
2023-04-18T01:05:14.957Z,63.20
2023-04-18T01:07:43.870Z,63.20
2023-04-18T01:10:15.550Z,63.20
2023-04-18T01:12:42.537Z,63.20
2023-04-18T01:15:13.819Z,63.20
2023-04-18T01:17:46.889Z,63.20
2023-04-18T01:20:19.152Z,63.10
2023-04-18T01:22:46.072Z,63.10
2023-04-18T01:25:20.958Z,63.10
2023-04-18T01:27:49.978Z,63.10
2023-04-18T01:30:19.462Z,63.00
2023-04-18T01:32:49.498Z,63.00
2023-04-18T01:35:21.759Z,63.00
2023-04-18T01:37:53.115Z,62.90
2023-04-18T01:40:23.355Z,62.90
2023-04-18T01:42:55.001Z,62.80
2023-04-18T01:45:27.321Z,62.90
2023-04-18T01:47:59.282Z,62.80
2023-04-18T01:50:27.303Z,62.90
2023-04-18T01:52:58.497Z,62.80
2023-04-18T01:55:26.404Z,62.80
2023-04-18T01:57:56.879Z,62.80
2023-04-18T02:00:26.963Z,62.80
2023-04-18T02:02:56.130Z,62.70
2023-04-18T02:05:29.501Z,62.70
2023-04-18T02:08:02.327Z,62.70
2023-04-18T02:10:30.286Z,62.60
2023-04-18T02:12:59.402Z,62.70
2023-04-18T02:15:29.564Z,62.70
2023-04-18T02:18:02.590Z,62.70
2023-04-18T02:20:36.315Z,62.60
2023-04-18T02:23:07.178Z,62.60
2023-04-18T02:25:41.447Z,62.50
2023-04-18T02:28:12.625Z,62.40
2023-04-18T02:30:44.322Z,62.50
2023-04-18T02:33:16.372Z,62.50
2023-04-18T02:35:46.681Z,62.50
2023-04-18T02:38:17.362Z,62.40
2023-04-18T02:40:44.368Z,62.30
2023-04-18T02:43:12.605Z,62.30
2023-04-18T02:45:43.088Z,62.30
2023-04-18T02:48:14.044Z,62.30
2023-04-18T02:50:41.073Z,62.40
2023-04-18T02:53:10.586Z,62.40
2023-04-18T02:55:51.734Z,62.40
2023-04-18T02:58:23.035Z,62.40
2023-04-18T03:03:38.853Z,62.40
2023-04-18T03:06:13.956Z,62.40
2023-04-18T03:08:44.078Z,62.40
2023-04-18T03:11:14.273Z,62.50
2023-04-18T03:13:44.239Z,62.40
2023-04-18T03:16:21.332Z,62.40
2023-04-18T03:18:48.339Z,62.30
2023-04-18T03:21:22.163Z,62.30
2023-04-18T03:23:52.510Z,62.30
2023-04-18T03:26:21.874Z,62.30
2023-04-18T03:28:58.248Z,62.40
2023-04-18T03:31:29.719Z,62.30
2023-04-18T03:34:00.308Z,62.30
2023-04-18T03:36:30.827Z,62.30
2023-04-18T03:39:04.848Z,62.30
2023-04-18T03:41:35.017Z,62.30
2023-04-18T03:44:05.258Z,63.00
2023-04-18T03:46:34.114Z,62.30
2023-04-18T03:49:02.454Z,62.30
2023-04-18T03:51:37.986Z,62.30
2023-04-18T03:54:09.428Z,62.30
2023-04-18T03:56:39.134Z,62.30
2023-04-18T03:59:07.342Z,62.80
2023-04-18T04:01:37.972Z,62.30
2023-04-18T04:04:17.932Z,62.20
2023-04-18T04:06:45.841Z,62.20
2023-04-18T04:09:15.119Z,62.30
2023-04-18T04:11:43.411Z,62.30
2023-04-18T04:14:12.336Z,62.30
2023-04-18T04:16:39.298Z,62.10
2023-04-18T04:19:09.730Z,62.10
2023-04-18T04:21:39.106Z,62.20
2023-04-18T04:24:09.999Z,62.10
2023-04-18T04:26:38.950Z,62.00
2023-04-18T04:29:11.750Z,62.00
2023-04-18T04:31:41.684Z,62.00
2023-04-18T04:34:09.698Z,62.10
2023-04-18T04:36:39.911Z,62.10
2023-04-18T04:39:10.661Z,62.60
2023-04-18T04:41:44.239Z,62.90
2023-04-18T04:44:11.017Z,62.90
2023-04-18T04:46:50.122Z,63.10
2023-04-18T04:49:19.553Z,63.30
2023-04-18T04:54:35.836Z,63.90
2023-04-18T04:59:48.982Z,62.90
2023-04-18T05:02:20.308Z,62.70
2023-04-18T05:04:51.512Z,62.50
2023-04-18T05:07:24.491Z,62.30
2023-04-18T05:09:56.116Z,62.30
2023-04-18T05:12:27.999Z,62.20
2023-04-18T05:14:58.814Z,62.20
2023-04-18T05:17:29.591Z,62.10
2023-04-18T05:20:00.385Z,62.00
2023-04-18T05:22:30.326Z,62.00
2023-04-18T05:25:00.566Z,61.70
2023-04-18T05:27:32.984Z,61.50
2023-04-18T05:30:04.431Z,61.50
2023-04-18T05:32:35.066Z,61.50
2023-04-18T05:35:05.522Z,61.80
2023-04-18T05:37:34.551Z,62.20
2023-04-18T05:40:05.773Z,62.70
2023-04-18T05:42:38.115Z,62.60
2023-04-18T05:45:08.139Z,62.30
2023-04-18T05:47:38.101Z,62.20
2023-04-18T05:50:07.773Z,62.10
2023-04-18T05:52:36.632Z,61.90
2023-04-18T05:55:09.801Z,61.90
2023-04-18T05:57:40.358Z,61.90
2023-04-18T06:00:15.199Z,61.90
2023-04-18T06:02:46.142Z,61.70
2023-04-18T06:05:16.039Z,61.70
2023-04-18T06:07:45.345Z,61.50
2023-04-18T06:10:15.836Z,61.50
2023-04-18T06:12:43.915Z,61.40
2023-04-18T06:15:14.396Z,61.20
2023-04-18T06:17:47.012Z,61.10
2023-04-18T06:20:16.674Z,61.00
2023-04-18T06:22:46.782Z,61.00
2023-04-18T06:25:14.523Z,61.00
2023-04-18T06:27:49.709Z,60.90
2023-04-18T06:30:23.789Z,60.90
2023-04-18T06:32:55.308Z,60.90
2023-04-18T06:35:24.598Z,60.70
2023-04-18T06:37:58.961Z,60.90
2023-04-18T06:40:26.936Z,60.70
2023-04-18T06:42:56.812Z,60.70
2023-04-18T06:45:31.025Z,60.70
2023-04-18T06:48:04.854Z,60.70
2023-04-18T06:50:36.218Z,60.60
2023-04-18T06:53:06.411Z,60.60
2023-04-18T06:55:37.794Z,60.50
2023-04-18T06:58:10.068Z,60.50
2023-04-18T07:00:41.937Z,60.60
2023-04-18T07:03:15.634Z,60.50
2023-04-18T07:05:46.243Z,60.50
2023-04-18T07:08:15.375Z,60.60
2023-04-18T07:10:44.897Z,60.40
2023-04-18T07:13:14.194Z,60.60
2023-04-18T07:15:42.276Z,60.40
2023-04-18T07:18:16.134Z,60.40
2023-04-18T07:20:52.034Z,60.60
2023-04-18T07:23:24.524Z,60.60
2023-04-18T07:25:55.960Z,60.50
2023-04-18T07:28:24.344Z,60.40
2023-04-18T07:31:00.003Z,60.40
2023-04-18T07:33:37.028Z,60.20
2023-04-18T07:36:14.357Z,60.20
2023-04-18T07:38:45.699Z,60.10
2023-04-18T07:41:16.477Z,60.00
2023-04-18T07:43:48.410Z,59.90
2023-04-18T07:46:19.890Z,59.90
2023-04-18T07:48:52.504Z,59.90
2023-04-18T07:51:24.053Z,59.90
2023-04-18T07:53:55.584Z,59.90
2023-04-18T07:56:24.112Z,59.80
2023-04-18T07:59:07.958Z,59.80
2023-04-18T08:01:36.256Z,59.90
2023-04-18T08:04:05.654Z,59.80
2023-04-18T08:06:37.707Z,59.70
2023-04-18T08:09:07.256Z,59.80
2023-04-18T08:11:34.723Z,59.80
2023-04-18T08:14:06.702Z,59.90
2023-04-18T08:16:37.465Z,59.80
2023-04-18T08:19:14.001Z,59.80
2023-04-18T08:21:45.282Z,59.80
2023-04-18T08:24:19.315Z,59.70
2023-04-18T08:26:47.874Z,59.70
2023-04-18T08:29:17.673Z,59.70
2023-04-18T08:31:49.596Z,59.70
2023-04-18T08:34:19.942Z,59.80
2023-04-18T08:37:02.049Z,59.70
2023-04-18T08:39:34.656Z,59.60
2023-04-18T08:42:17.714Z,59.60
2023-04-18T08:44:50.796Z,59.70
2023-04-18T08:47:22.787Z,59.50
2023-04-18T08:49:54.531Z,59.30
2023-04-18T08:52:24.689Z,59.40
2023-04-18T08:54:55.337Z,59.30
2023-04-18T08:57:31.238Z,59.50
2023-04-18T09:00:09.823Z,59.50
2023-04-18T09:02:47.289Z,59.40
2023-04-18T09:05:23.546Z,59.30
2023-04-18T09:07:58.560Z,59.20
2023-04-18T09:10:34.975Z,59.30
2023-04-18T09:13:08.149Z,59.30
2023-04-18T09:15:35.408Z,59.30
2023-04-18T09:18:12.980Z,59.30
2023-04-18T09:20:44.218Z,59.30
2023-04-18T09:23:23.686Z,59.20
2023-04-18T09:25:57.253Z,59.30
2023-04-18T09:28:36.144Z,59.40
2023-04-18T09:31:17.539Z,59.30
2023-04-18T09:34:03.574Z,59.40
2023-04-18T09:36:37.713Z,59.50
2023-04-18T09:39:07.731Z,59.30
2023-04-18T09:41:38.155Z,59.30
2023-04-18T09:44:17.421Z,59.20
2023-04-18T09:46:48.632Z,58.90
2023-04-18T09:49:19.052Z,58.80
2023-04-18T09:51:52.056Z,59.10
2023-04-18T09:54:25.009Z,58.90
2023-04-18T09:56:59.453Z,58.70
2023-04-18T09:59:54.686Z,58.90
2023-04-18T10:02:31.184Z,59.00
2023-04-18T10:05:09.848Z,59.00
2023-04-18T10:07:41.086Z,58.90
2023-04-18T10:10:12.650Z,59.10
2023-04-18T10:12:44.244Z,59.00
2023-04-18T10:15:15.375Z,58.90
2023-04-18T10:18:02.658Z,58.90
2023-04-18T10:20:38.242Z,58.80
2023-04-18T10:23:38.673Z,58.70
2023-04-18T10:26:23.575Z,58.70
2023-04-18T10:29:02.390Z,58.70
2023-04-18T10:31:39.218Z,58.50
2023-04-18T10:34:10.664Z,58.60
2023-04-18T10:37:08.670Z,58.60
2023-04-18T10:40:15.193Z,58.50
2023-04-18T10:42:50.454Z,58.60
2023-04-18T10:45:35.018Z,58.60
2023-04-18T10:48:38.569Z,58.40
2023-04-18T10:54:16.404Z,58.60
2023-04-18T10:56:56.753Z,58.60
2023-04-18T10:59:51.142Z,58.60
2023-04-18T11:02:39.833Z,58.70
2023-04-18T11:05:25.352Z,58.60
2023-04-18T11:07:54.469Z,58.60
2023-04-18T11:10:30.541Z,58.60
2023-04-18T11:13:07.894Z,58.60
2023-04-18T11:15:36.735Z,59.20
2023-04-18T11:18:08.542Z,58.70
2023-04-18T11:20:47.829Z,58.60
2023-04-18T11:23:32.955Z,58.60
2023-04-18T11:26:03.621Z,58.60
2023-04-18T11:28:40.833Z,58.70
2023-04-18T11:31:10.836Z,58.50
2023-04-18T11:33:43.644Z,58.70
2023-04-18T11:36:16.971Z,58.60
2023-04-18T11:38:50.479Z,58.50
2023-04-18T11:41:20.923Z,58.40
2023-04-18T11:43:52.106Z,58.50
2023-04-18T11:46:23.350Z,58.40
2023-04-18T11:48:55.640Z,58.50
2023-04-18T11:51:43.772Z,58.50
2023-04-18T11:54:46.845Z,58.50
2023-04-18T11:57:32.613Z,58.50
2023-04-18T12:00:05.810Z,58.50
2023-04-18T12:02:45.879Z,58.60
2023-04-18T12:05:36.009Z,58.40
2023-04-18T12:08:13.906Z,58.40
2023-04-18T12:11:08.659Z,58.30
2023-04-18T12:13:36.773Z,58.40
2023-04-18T12:16:10.945Z,58.30
2023-04-18T12:18:39.932Z,58.20
2023-04-18T12:21:13.209Z,58.40
2023-04-18T12:23:45.696Z,58.30
2023-04-18T12:26:25.849Z,58.20
2023-04-18T12:28:59.962Z,58.10
2023-04-18T12:31:31.607Z,58.20
2023-04-18T12:34:05.946Z,58.30
2023-04-18T12:36:38.535Z,58.10
2023-04-18T12:39:06.719Z,58.20
2023-04-18T12:44:20.214Z,58.10
2023-04-18T12:46:49.807Z,58.00
2023-04-18T12:49:20.051Z,58.00
2023-04-18T12:51:50.506Z,58.00
2023-04-18T12:54:19.493Z,57.90
2023-04-18T12:56:47.720Z,58.00
2023-04-18T13:02:01.110Z,58.00
2023-04-18T13:04:37.248Z,57.90
2023-04-18T13:07:09.379Z,57.90
2023-04-18T13:09:40.723Z,58.00
2023-04-18T13:12:12.047Z,58.10
2023-04-18T13:14:59.158Z,57.90
2023-04-18T13:17:28.733Z,57.90
2023-04-18T13:19:56.777Z,57.80
2023-04-18T13:22:30.745Z,57.80
2023-04-18T13:25:01.762Z,57.90
2023-04-18T13:27:34.161Z,57.80
2023-04-18T13:30:10.277Z,57.80
2023-04-18T13:32:42.963Z,57.80
2023-04-18T13:35:24.306Z,57.80
2023-04-18T13:37:56.280Z,57.90
2023-04-18T13:40:31.068Z,57.90
2023-04-18T13:43:03.006Z,57.90
2023-04-18T13:45:30.823Z,57.80
2023-04-18T13:47:59.852Z,57.80
2023-04-18T13:50:30.463Z,57.80
2023-04-18T13:53:00.777Z,57.80
2023-04-18T13:55:32.364Z,57.80
2023-04-18T13:58:04.114Z,57.80
2023-04-18T14:00:36.099Z,57.80
2023-04-18T14:03:06.896Z,57.80
2023-04-18T14:05:38.794Z,57.80
2023-04-18T14:08:10.057Z,57.90
2023-04-18T14:10:45.521Z,57.90
2023-04-18T14:13:16.814Z,58.00
2023-04-18T14:15:52.213Z,57.90
2023-04-18T14:18:26.051Z,57.80
2023-04-18T14:20:57.890Z,57.80
2023-04-18T14:23:29.325Z,57.70
2023-04-18T14:25:56.224Z,57.70
2023-04-18T14:28:29.442Z,57.70
2023-04-18T14:31:02.121Z,57.70
2023-04-18T14:33:38.087Z,57.80
2023-04-18T14:36:06.883Z,57.70
2023-04-18T14:38:39.025Z,57.80
2023-04-18T14:41:08.809Z,57.70
2023-04-18T14:43:40.083Z,57.70
2023-04-18T14:46:19.808Z,57.80
2023-04-18T14:48:51.740Z,57.80
2023-04-18T14:51:22.566Z,57.70
2023-04-18T14:53:51.742Z,57.80
2023-04-18T14:56:31.252Z,57.90
2023-04-18T14:59:02.822Z,57.80
2023-04-18T15:01:34.540Z,57.70
2023-04-18T15:04:04.948Z,57.70
2023-04-18T15:06:36.635Z,57.70
2023-04-18T15:11:50.699Z,57.70
2023-04-18T15:14:21.769Z,57.70
2023-04-18T15:16:53.260Z,57.70
2023-04-18T15:19:25.365Z,57.70
2023-04-18T15:21:57.022Z,57.70
2023-04-18T15:24:29.028Z,57.70
2023-04-18T15:26:59.260Z,57.70
2023-04-18T15:29:37.462Z,57.60
2023-04-18T15:32:09.516Z,57.50
2023-04-18T15:34:42.888Z,57.50
2023-04-18T15:37:14.698Z,57.40
2023-04-18T15:39:45.146Z,57.40
2023-04-18T15:42:15.418Z,57.40
2023-04-18T15:44:45.831Z,57.40
2023-04-18T15:47:19.963Z,57.40
2023-04-18T15:49:52.050Z,57.40
2023-04-18T15:52:23.501Z,57.30
2023-04-18T15:54:57.496Z,57.30
2023-04-18T15:57:25.982Z,57.30
2023-04-18T15:59:56.423Z,57.30
2023-04-18T16:02:29.204Z,57.30
2023-04-18T16:04:57.759Z,57.30
2023-04-18T16:07:28.842Z,57.40
2023-04-18T16:09:57.946Z,57.50
2023-04-18T16:12:27.519Z,57.50
2023-04-18T16:14:57.537Z,57.50
2023-04-18T16:17:28.217Z,57.50
2023-04-18T16:19:57.748Z,57.50
2023-04-18T16:22:27.812Z,57.50
2023-04-18T16:24:58.244Z,57.50
2023-04-18T16:27:29.959Z,57.40
2023-04-18T16:30:03.477Z,57.50
2023-04-18T16:32:35.492Z,57.50
2023-04-18T16:35:10.920Z,57.50
2023-04-18T16:37:44.000Z,57.60
2023-04-18T16:40:15.043Z,57.60
2023-04-18T16:42:45.728Z,57.60
2023-04-18T16:45:13.883Z,57.70
2023-04-18T16:47:42.408Z,57.70
2023-04-18T16:50:13.504Z,57.60
2023-04-18T16:52:44.326Z,58.10
2023-04-18T16:55:12.393Z,58.40
2023-04-18T16:57:43.833Z,58.50
2023-04-18T17:00:16.727Z,57.80
2023-04-18T17:02:46.005Z,58.50
2023-04-18T17:05:29.053Z,58.70
2023-04-18T17:11:03.108Z,58.30
2023-04-18T17:13:35.028Z,58.00
2023-04-18T17:16:06.659Z,57.80
2023-04-18T17:18:39.966Z,58.10
2023-04-18T17:21:10.287Z,58.00
2023-04-18T17:23:44.650Z,57.90
2023-04-18T17:26:17.890Z,57.30
2023-04-18T17:28:47.178Z,57.40
2023-04-18T17:31:17.929Z,57.00
2023-04-18T17:33:47.619Z,57.20
2023-04-18T17:36:22.754Z,56.90
2023-04-18T17:38:49.639Z,57.10
2023-04-18T17:44:08.703Z,57.20
2023-04-18T17:46:40.210Z,57.30
2023-04-18T17:49:11.013Z,57.30
2023-04-18T17:51:40.925Z,57.30
2023-04-18T17:54:13.523Z,57.10
2023-04-18T17:56:47.426Z,57.30
2023-04-18T17:59:17.175Z,57.60
2023-04-18T18:01:54.706Z,57.40
2023-04-18T18:04:26.667Z,57.30
2023-04-18T18:07:11.126Z,56.90
2023-04-18T18:09:44.448Z,56.60
2023-04-18T18:12:17.067Z,56.80
2023-04-18T18:14:45.265Z,56.70
2023-04-18T18:17:14.362Z,56.60
2023-04-18T18:19:43.509Z,56.60
2023-04-18T18:22:15.245Z,57.00
2023-04-18T18:24:45.546Z,57.10
2023-04-18T18:27:13.858Z,57.10
2023-04-18T18:29:46.455Z,57.40
2023-04-18T18:32:19.266Z,57.60
2023-04-18T18:34:48.602Z,57.40
2023-04-18T18:37:19.153Z,57.60
2023-04-18T18:39:48.220Z,57.60
2023-04-18T18:42:19.203Z,57.50
2023-04-18T18:44:49.448Z,57.60
2023-04-18T18:47:19.825Z,57.50
2023-04-18T18:49:52.327Z,57.60
2023-04-18T18:52:19.980Z,57.70
2023-04-18T18:54:48.820Z,57.60
2023-04-18T18:57:19.495Z,57.70
2023-04-18T18:59:48.933Z,57.60
2023-04-18T19:02:23.156Z,57.70
2023-04-18T19:04:58.117Z,57.60
2023-04-18T19:07:31.702Z,57.60
2023-04-18T19:10:06.504Z,57.80
2023-04-18T19:12:38.291Z,57.20
2023-04-18T19:15:14.647Z,56.50
2023-04-18T19:17:43.552Z,56.80
2023-04-18T19:20:16.660Z,57.00
2023-04-18T19:22:44.927Z,57.10
2023-04-18T19:25:15.669Z,57.00
2023-04-18T19:27:45.992Z,57.20
2023-04-18T19:30:17.152Z,57.40
2023-04-18T19:32:49.074Z,57.20
2023-04-18T19:35:26.212Z,57.20
2023-04-18T19:38:02.562Z,57.00
2023-04-18T19:40:35.736Z,57.10
2023-04-18T19:43:07.215Z,57.80
2023-04-18T19:45:36.435Z,57.20
2023-04-18T19:48:08.778Z,57.00
2023-04-18T19:50:43.157Z,57.00
2023-04-18T19:55:59.754Z,57.00
2023-04-18T19:58:52.338Z,56.90
2023-04-18T20:01:21.409Z,56.80
2023-04-18T20:03:51.745Z,56.90
2023-04-18T20:06:27.351Z,56.70
2023-04-18T20:08:59.630Z,56.90
2023-04-18T20:11:28.083Z,56.60
2023-04-18T20:14:00.474Z,56.90
2023-04-18T20:16:29.594Z,57.00
2023-04-18T20:18:58.634Z,56.80
2023-04-18T20:21:30.656Z,57.20
2023-04-18T20:24:01.894Z,57.50
2023-04-18T20:26:31.273Z,57.30
2023-04-18T20:29:03.029Z,57.40
2023-04-18T20:31:33.398Z,57.40
2023-04-18T20:34:03.902Z,57.50
2023-04-18T20:36:37.728Z,57.50
2023-04-18T20:39:16.734Z,57.70
2023-04-18T20:41:49.345Z,57.60
2023-04-18T20:44:25.137Z,57.60
2023-04-18T20:46:57.344Z,57.60
2023-04-18T20:49:29.289Z,57.80
2023-04-18T20:51:59.731Z,57.70
2023-04-18T20:54:30.993Z,57.80
2023-04-18T20:57:02.343Z,57.80
2023-04-18T20:59:31.373Z,57.90
2023-04-18T21:02:00.429Z,58.00
2023-04-18T21:04:30.004Z,58.00
2023-04-18T21:07:01.089Z,58.10
2023-04-18T21:09:28.061Z,58.10
2023-04-18T21:12:00.798Z,58.10
2023-04-18T21:14:31.478Z,58.10
2023-04-18T21:17:02.138Z,58.20
2023-04-18T21:19:34.243Z,58.30
2023-04-18T21:22:06.603Z,58.20
2023-04-18T21:24:38.127Z,58.30
2023-04-18T21:27:09.922Z,58.40
2023-04-18T21:29:40.686Z,58.30
2023-04-18T21:32:11.906Z,58.40
2023-04-18T21:34:50.159Z,58.40
2023-04-18T21:37:19.555Z,58.40
2023-04-18T21:39:51.117Z,58.50
2023-04-18T21:42:22.184Z,58.60
2023-04-18T21:44:50.218Z,58.60
2023-04-18T21:47:24.387Z,58.50
2023-04-18T21:49:57.858Z,58.50
2023-04-18T21:52:31.036Z,58.60
2023-04-18T21:55:02.401Z,58.60
2023-04-18T21:57:30.622Z,58.60
2023-04-18T22:00:00.913Z,58.70
2023-04-18T22:02:31.106Z,58.70
2023-04-18T22:05:00.183Z,58.70
2023-04-18T22:07:34.196Z,58.70
2023-04-18T22:10:04.658Z,58.70
2023-04-18T22:12:34.863Z,58.80
2023-04-18T22:15:06.088Z,58.80
2023-04-18T22:17:37.506Z,58.70
2023-04-18T22:20:10.458Z,58.70
2023-04-18T22:22:40.458Z,58.80
2023-04-18T22:25:15.002Z,58.80
2023-04-18T22:27:46.290Z,58.80
2023-04-18T22:30:24.167Z,58.70
2023-04-18T22:33:03.837Z,58.80
2023-04-18T22:35:33.477Z,58.80
2023-04-18T22:38:04.510Z,58.80
2023-04-18T22:40:35.045Z,58.80
2023-04-18T22:43:03.956Z,58.80
2023-04-18T22:45:37.245Z,58.80
2023-04-18T22:48:20.280Z,58.80
2023-04-18T22:50:52.880Z,58.80
2023-04-18T22:53:24.491Z,58.80
2023-04-18T22:55:56.147Z,58.80
2023-04-18T22:58:24.636Z,58.80
2023-04-18T23:00:54.788Z,58.80
2023-04-18T23:03:23.187Z,58.80
2023-04-18T23:05:52.581Z,58.80
2023-04-18T23:08:24.931Z,58.80
2023-04-18T23:10:53.978Z,58.80
2023-04-18T23:13:23.904Z,58.80
2023-04-18T23:15:53.941Z,58.80
2023-04-18T23:18:25.086Z,58.70
2023-04-18T23:20:56.848Z,58.80
2023-04-18T23:23:25.642Z,58.70
2023-04-18T23:25:55.345Z,58.80
2023-04-18T23:28:27.367Z,58.80
2023-04-18T23:30:59.087Z,58.70
2023-04-18T23:33:28.167Z,58.80
2023-04-18T23:35:59.541Z,58.70
2023-04-18T23:38:30.205Z,58.80
2023-04-18T23:40:59.469Z,58.80
2023-04-18T23:43:30.369Z,58.80
2023-04-18T23:46:01.011Z,58.70
2023-04-18T23:48:31.012Z,58.70
2023-04-18T23:51:01.865Z,58.70
2023-04-18T23:53:32.145Z,58.70
2023-04-18T23:56:03.654Z,58.70
2023-04-18T23:58:34.210Z,58.70
